createdAt,value
2023-05-18T00:00:17.888Z,98438.70
2023-05-18T00:01:44.919Z,98436.23
2023-05-18T00:02:52.720Z,98441.41
2023-05-18T00:04:00.458Z,98435.75
2023-05-18T00:05:09.190Z,98434.16
2023-05-18T00:06:17.710Z,98433.39
2023-05-18T00:07:25.396Z,98434.88
2023-05-18T00:08:36.052Z,98435.26
2023-05-18T00:09:46.468Z,98433.93
2023-05-18T00:10:53.853Z,98431.52
2023-05-18T00:12:01.541Z,98436.27
2023-05-18T00:13:11.755Z,98433.84
2023-05-18T00:14:20.318Z,98433.02
2023-05-18T00:15:28.097Z,98431.38
2023-05-18T00:16:36.541Z,98431.04
2023-05-18T00:17:44.096Z,98430.88
2023-05-18T00:18:55.843Z,98427.96
2023-05-18T00:20:03.151Z,98430.48
2023-05-18T00:21:10.560Z,98431.05
2023-05-18T00:22:20.546Z,98429.40
2023-05-18T00:23:33.842Z,98431.88
2023-05-18T00:24:40.610Z,98428.20
2023-05-18T00:25:49.586Z,98427.33
2023-05-18T00:26:57.717Z,98428.36
2023-05-18T00:28:06.283Z,98425.29
2023-05-18T00:29:13.900Z,98424.67
2023-05-18T00:30:23.176Z,98425.14
2023-05-18T00:31:31.430Z,98422.56
2023-05-18T00:32:39.096Z,98425.54
2023-05-18T00:33:47.962Z,98424.17
2023-05-18T00:34:56.026Z,98422.91
2023-05-18T00:36:03.392Z,98425.16
2023-05-18T00:37:11.809Z,98425.72
2023-05-18T00:38:20.230Z,98426.89
2023-05-18T00:39:28.641Z,98426.50
2023-05-18T00:40:37.129Z,98423.13
2023-05-18T00:41:45.178Z,98424.63
2023-05-18T00:42:53.409Z,98426.55
2023-05-18T00:44:01.059Z,98425.23
2023-05-18T00:45:09.412Z,98429.04
2023-05-18T00:46:18.378Z,98429.75
2023-05-18T00:47:26.960Z,98432.17
2023-05-18T00:48:34.807Z,98431.73
2023-05-18T00:49:41.970Z,98431.13
2023-05-18T00:50:48.805Z,98429.09
2023-05-18T00:51:59.617Z,98427.89
2023-05-18T00:53:06.495Z,98429.98
2023-05-18T00:54:13.870Z,98429.98
2023-05-18T00:55:22.058Z,98429.92
2023-05-18T00:56:30.485Z,98431.36
2023-05-18T00:57:39.471Z,98430.86
2023-05-18T00:58:47.757Z,98431.36
2023-05-18T00:59:54.775Z,98433.29
2023-05-18T01:01:05.080Z,98429.98
2023-05-18T01:02:13.918Z,98430.09
2023-05-18T01:03:23.941Z,98430.92
2023-05-18T01:04:33.919Z,98430.64
2023-05-18T01:05:42.954Z,98430.97
2023-05-18T01:06:50.147Z,98427.33
2023-05-18T01:07:58.829Z,98429.48
2023-05-18T01:09:08.888Z,98427.66
2023-05-18T01:10:18.185Z,98426.94
2023-05-18T01:11:54.663Z,98429.30
2023-05-18T01:13:11.416Z,98428.77
2023-05-18T01:14:36.106Z,98431.80
2023-05-18T01:15:44.693Z,98432.08
2023-05-18T01:17:30.578Z,98432.29
2023-05-18T01:18:45.117Z,98432.90
2023-05-18T01:20:14.986Z,98432.73
2023-05-18T01:21:50.991Z,98430.80
2023-05-18T01:23:37.443Z,98430.87
2023-05-18T01:24:46.591Z,98436.21
2023-05-18T01:26:18.568Z,98435.77
2023-05-18T01:27:28.819Z,98436.81
2023-05-18T01:28:36.319Z,98436.42
2023-05-18T01:29:43.235Z,98436.59
2023-05-18T01:30:49.982Z,98441.27
2023-05-18T01:31:56.825Z,98440.31
2023-05-18T01:33:12.726Z,98438.46
2023-05-18T01:34:20.996Z,98439.89
2023-05-18T01:35:29.344Z,98440.27
2023-05-18T01:36:37.940Z,98442.36
2023-05-18T01:37:45.118Z,98447.66
2023-05-18T01:38:53.002Z,98447.55
2023-05-18T01:40:00.391Z,98445.02
2023-05-18T01:41:34.874Z,98449.55
2023-05-18T01:42:46.258Z,98449.56
2023-05-18T01:44:24.096Z,98450.27
2023-05-18T01:45:31.631Z,98453.09
2023-05-18T01:46:48.481Z,98452.75
2023-05-18T01:47:56.689Z,98457.00
2023-05-18T01:49:10.319Z,98458.54
2023-05-18T01:50:20.440Z,98458.15
2023-05-18T01:51:30.416Z,98463.06
2023-05-18T01:52:41.865Z,98463.61
2023-05-18T01:53:55.091Z,98465.20
2023-05-18T01:55:06.418Z,98465.58
2023-05-18T01:56:14.971Z,98464.10
2023-05-18T01:57:26.005Z,98463.11
2023-05-18T01:58:34.030Z,98465.08
2023-05-18T01:59:41.756Z,98466.14
2023-05-18T02:00:49.196Z,98468.63
2023-05-18T02:02:01.563Z,98470.38
2023-05-18T02:03:09.758Z,98470.16
2023-05-18T02:04:17.620Z,98473.68
2023-05-18T02:05:25.951Z,98477.10
2023-05-18T02:06:35.494Z,98476.21
2023-05-18T02:07:45.153Z,98478.96
2023-05-18T02:08:53.463Z,98478.64
2023-05-18T02:10:01.157Z,98481.39
2023-05-18T02:11:09.675Z,98475.48
2023-05-18T02:12:17.867Z,98478.02
2023-05-18T02:13:26.046Z,98482.92
2023-05-18T02:14:34.246Z,98482.59
2023-05-18T02:15:41.364Z,98484.17
2023-05-18T02:16:55.013Z,98486.13
2023-05-18T02:18:02.162Z,98488.55
2023-05-18T02:19:13.610Z,98491.14
2023-05-18T02:20:22.365Z,98488.11
2023-05-18T02:21:33.775Z,98490.80
2023-05-18T02:22:40.978Z,98492.46
2023-05-18T02:23:48.314Z,98492.67
2023-05-18T02:24:55.481Z,98495.09
2023-05-18T02:26:02.640Z,98496.04
2023-05-18T02:27:10.318Z,98497.14
2023-05-18T02:28:18.091Z,98499.88
2023-05-18T02:29:26.158Z,98506.66
2023-05-18T02:30:35.743Z,98508.82
2023-05-18T02:31:42.818Z,98515.27
2023-05-18T02:32:50.807Z,98520.01
2023-05-18T02:33:58.746Z,98521.83
2023-05-18T02:35:08.757Z,98521.71
2023-05-18T02:36:16.707Z,98522.48
2023-05-18T02:37:26.096Z,98523.31
2023-05-18T02:38:34.902Z,98525.85
2023-05-18T02:39:42.256Z,98527.61
2023-05-18T02:40:50.251Z,98529.27
2023-05-18T02:41:58.149Z,98529.60
2023-05-18T02:43:06.275Z,98531.20
2023-05-18T02:44:15.594Z,98530.53
2023-05-18T02:45:23.351Z,98529.64
2023-05-18T02:46:30.790Z,98530.73
2023-05-18T02:47:38.225Z,98532.07
2023-05-18T02:48:46.822Z,98530.90
2023-05-18T02:49:54.848Z,98529.91
2023-05-18T02:51:03.637Z,98533.11
2023-05-18T02:52:13.718Z,98533.65
2023-05-18T02:53:21.564Z,98531.67
2023-05-18T02:54:30.046Z,98534.31
2023-05-18T02:55:38.861Z,98535.25
2023-05-18T02:56:53.198Z,98538.61
2023-05-18T02:58:15.003Z,98540.10
2023-05-18T02:59:38.901Z,98547.23
2023-05-18T03:00:46.153Z,98547.40
2023-05-18T03:01:54.170Z,98547.03
2023-05-18T03:03:03.306Z,98547.73
2023-05-18T03:04:11.224Z,98550.88
2023-05-18T03:05:25.086Z,98550.11
2023-05-18T03:06:34.287Z,98550.39
2023-05-18T03:07:41.766Z,98546.58
2023-05-18T03:08:50.222Z,98546.63
2023-05-18T03:09:58.122Z,98548.06
2023-05-18T03:11:05.490Z,98548.61
2023-05-18T03:12:13.709Z,98547.88
2023-05-18T03:13:21.503Z,98545.90
2023-05-18T03:14:29.370Z,98546.11
2023-05-18T03:15:39.552Z,98549.27
2023-05-18T03:16:47.860Z,98548.38
2023-05-18T03:17:55.744Z,98549.70
2023-05-18T03:19:05.151Z,98554.88
2023-05-18T03:20:16.857Z,98553.83
2023-05-18T03:21:24.038Z,98554.77
2023-05-18T03:22:31.679Z,98557.40
2023-05-18T03:23:38.423Z,98557.14
2023-05-18T03:24:46.660Z,98559.56
2023-05-18T03:25:56.895Z,98561.92
2023-05-18T03:27:06.455Z,98562.80
2023-05-18T03:28:14.243Z,98560.60
2023-05-18T03:29:22.991Z,98560.55
2023-05-18T03:30:30.860Z,98565.12
2023-05-18T03:31:38.677Z,98564.69
2023-05-18T03:32:46.099Z,98567.21
2023-05-18T03:33:53.719Z,98564.23
2023-05-18T03:35:02.849Z,98567.27
2023-05-18T03:36:12.291Z,98570.91
2023-05-18T03:37:20.774Z,98567.87
2023-05-18T03:38:28.038Z,98571.67
2023-05-18T03:39:41.564Z,98574.59
2023-05-18T03:40:50.426Z,98578.29
2023-05-18T03:41:58.170Z,98581.05
2023-05-18T03:43:05.407Z,98583.64
2023-05-18T03:44:13.897Z,98586.90
2023-05-18T03:45:25.179Z,98588.54
2023-05-18T03:46:33.821Z,98590.20
2023-05-18T03:47:42.320Z,98591.14
2023-05-18T03:48:49.915Z,98596.05
2023-05-18T03:50:01.177Z,98595.33
2023-05-18T03:51:10.034Z,98597.52
2023-05-18T03:52:23.724Z,98599.08
2023-05-18T03:53:31.969Z,98598.74
2023-05-18T03:54:38.907Z,98600.34
2023-05-18T03:55:47.040Z,98600.71
2023-05-18T03:56:56.101Z,98604.30
2023-05-18T03:58:04.681Z,98604.08
2023-05-18T03:59:12.981Z,98608.33
2023-05-18T04:00:22.033Z,98607.44
2023-05-18T04:01:31.421Z,98619.64
2023-05-18T04:02:41.872Z,98623.01
2023-05-18T04:03:49.116Z,98622.84
2023-05-18T04:04:59.437Z,98625.33
2023-05-18T04:06:11.692Z,98626.09
2023-05-18T04:07:20.160Z,98624.98
2023-05-18T04:08:27.692Z,98627.36
2023-05-18T04:09:36.117Z,98632.21
2023-05-18T04:10:45.251Z,98633.15
2023-05-18T04:11:53.171Z,98634.85
2023-05-18T04:13:02.277Z,98636.34
2023-05-18T04:14:13.044Z,98640.98
2023-05-18T04:15:20.461Z,98640.05
2023-05-18T04:16:30.895Z,98641.59
2023-05-18T04:17:41.228Z,98643.41
2023-05-18T04:18:50.577Z,98643.62
2023-05-18T04:19:58.842Z,98642.02
2023-05-18T04:21:07.948Z,98642.79
2023-05-18T04:22:18.452Z,98641.73
2023-05-18T04:23:25.969Z,98646.48
2023-05-18T04:24:36.961Z,98649.58
2023-05-18T04:25:45.090Z,98652.36
2023-05-18T04:26:52.647Z,98650.98
2023-05-18T04:27:59.957Z,98653.57
2023-05-18T04:29:09.128Z,98652.13
2023-05-18T04:30:20.263Z,98653.95
2023-05-18T04:31:32.009Z,98653.00
2023-05-18T04:32:39.908Z,98653.51
2023-05-18T04:33:48.633Z,98651.90
2023-05-18T04:35:00.393Z,98658.58
2023-05-18T04:36:08.466Z,98650.63
2023-05-18T04:37:19.644Z,98654.48
2023-05-18T04:38:29.548Z,98653.92
2023-05-18T04:39:40.716Z,98649.73
2023-05-18T04:40:55.144Z,98651.61
2023-05-18T04:42:03.036Z,98653.70
2023-05-18T04:43:12.149Z,98656.47
2023-05-18T04:44:22.043Z,98656.46
2023-05-18T04:45:30.646Z,98658.39
2023-05-18T04:46:41.645Z,98656.72
2023-05-18T04:47:54.897Z,98656.11
2023-05-18T04:49:02.920Z,98656.21
2023-05-18T04:50:13.896Z,98656.23
2023-05-18T04:51:22.652Z,98654.84
2023-05-18T04:52:32.180Z,98653.83
2023-05-18T04:53:40.326Z,98660.08
2023-05-18T04:54:48.401Z,98663.34
2023-05-18T04:55:55.726Z,98661.73
2023-05-18T04:57:06.103Z,98667.08
2023-05-18T04:58:13.320Z,98669.63
2023-05-18T04:59:20.525Z,98671.16
2023-05-18T05:00:28.216Z,98672.98
2023-05-18T05:01:39.244Z,98676.19
2023-05-18T05:02:46.366Z,98677.12
2023-05-18T05:03:53.865Z,98677.02
2023-05-18T05:05:04.440Z,98678.67
2023-05-18T05:06:12.278Z,98682.02
2023-05-18T05:07:20.309Z,98681.91
2023-05-18T05:08:27.958Z,98684.56
2023-05-18T05:09:35.783Z,98683.08
2023-05-18T05:10:42.889Z,98680.91
2023-05-18T05:11:49.937Z,98682.06
2023-05-18T05:13:00.408Z,98680.63
2023-05-18T05:14:07.570Z,98680.34
2023-05-18T05:15:15.071Z,98683.10
2023-05-18T05:16:22.535Z,98682.89
2023-05-18T05:17:30.142Z,98681.50
2023-05-18T05:18:37.614Z,98685.96
2023-05-18T05:19:44.980Z,98685.15
2023-05-18T05:20:53.452Z,98686.29
2023-05-18T05:22:01.487Z,98687.72
2023-05-18T05:23:10.719Z,98689.38
2023-05-18T05:24:20.960Z,98684.08
2023-05-18T05:25:28.311Z,98683.96
2023-05-18T05:26:36.487Z,98681.41
2023-05-18T05:27:43.740Z,98682.30
2023-05-18T05:28:52.738Z,98680.91
2023-05-18T05:30:01.615Z,98682.00
2023-05-18T05:31:11.983Z,98680.13
2023-05-18T05:32:19.905Z,98681.45
2023-05-18T05:33:27.921Z,98679.29
2023-05-18T05:34:35.779Z,98678.63
2023-05-18T05:35:42.699Z,98678.68
2023-05-18T05:36:50.752Z,98680.00
2023-05-18T05:37:57.797Z,98680.11
2023-05-18T05:39:08.398Z,98678.23
2023-05-18T05:40:17.027Z,98681.53
2023-05-18T05:41:27.122Z,98676.89
2023-05-18T05:42:34.576Z,98677.89
2023-05-18T05:43:42.265Z,98676.70
2023-05-18T05:44:50.221Z,98677.09
2023-05-18T05:45:57.892Z,98677.92
2023-05-18T05:47:10.482Z,98678.91
2023-05-18T05:48:18.683Z,98677.27
2023-05-18T05:49:27.722Z,98678.08
2023-05-18T05:50:35.872Z,98676.69
2023-05-18T05:51:45.113Z,98676.96
2023-05-18T05:52:52.699Z,98675.36
2023-05-18T05:54:01.661Z,98676.96
2023-05-18T05:55:10.792Z,98679.23
2023-05-18T05:56:19.046Z,98676.46
2023-05-18T05:57:27.141Z,98680.02
2023-05-18T05:58:36.526Z,98672.77
2023-05-18T05:59:44.371Z,98671.73
2023-05-18T06:00:53.144Z,98669.39
2023-05-18T06:02:01.542Z,98672.09
2023-05-18T06:03:09.809Z,98666.56
2023-05-18T06:04:22.781Z,98668.45
2023-05-18T06:05:31.171Z,98666.29
2023-05-18T06:06:42.478Z,98663.95
2023-05-18T06:07:51.092Z,98663.02
2023-05-18T06:08:59.604Z,98659.58
2023-05-18T06:10:08.429Z,98657.20
2023-05-18T06:11:17.540Z,98656.48
2023-05-18T06:12:26.655Z,98654.41
2023-05-18T06:13:54.085Z,98656.73
2023-05-18T06:15:01.530Z,98654.86
2023-05-18T06:16:10.535Z,98656.40
2023-05-18T06:17:19.327Z,98652.25
2023-05-18T06:18:27.945Z,98652.25
2023-05-18T06:19:39.716Z,98648.48
2023-05-18T06:20:47.192Z,98653.61
2023-05-18T06:21:55.780Z,98657.52
2023-05-18T06:23:05.103Z,98655.41
2023-05-18T06:24:33.063Z,98653.27
2023-05-18T06:26:00.879Z,98650.95
2023-05-18T06:27:28.642Z,98649.50
2023-05-18T06:28:57.499Z,98648.33
2023-05-18T06:30:12.900Z,98646.88
2023-05-18T06:31:38.733Z,98645.61
2023-05-18T06:32:54.243Z,98642.35
2023-05-18T06:34:02.503Z,98641.91
2023-05-18T06:35:10.893Z,98640.57
2023-05-18T06:36:19.965Z,98645.54
2023-05-18T06:37:28.893Z,98645.73
2023-05-18T06:38:37.842Z,98643.04
2023-05-18T06:39:46.377Z,98642.48
2023-05-18T06:40:53.976Z,98639.44
2023-05-18T06:42:02.079Z,98639.09
2023-05-18T06:43:14.048Z,98637.48
2023-05-18T06:44:37.914Z,98636.31
2023-05-18T06:45:49.303Z,98635.98
2023-05-18T06:47:10.222Z,98632.87
2023-05-18T06:48:17.873Z,98631.11
2023-05-18T06:49:25.974Z,98632.14
2023-05-18T06:50:33.297Z,98630.98
2023-05-18T06:51:40.370Z,98629.87
2023-05-18T06:52:47.718Z,98628.27
2023-05-18T06:53:54.947Z,98631.48
2023-05-18T06:55:04.211Z,98631.12
2023-05-18T06:56:14.477Z,98630.63
2023-05-18T06:57:24.109Z,98626.40
2023-05-18T06:58:52.121Z,98630.16
2023-05-18T07:00:00.735Z,98631.32
2023-05-18T07:01:09.816Z,98631.59
2023-05-18T07:02:17.716Z,98634.06
2023-05-18T07:03:25.345Z,98635.89
2023-05-18T07:04:34.040Z,98635.33
2023-05-18T07:05:42.213Z,98635.59
2023-05-18T07:06:49.458Z,98636.42
2023-05-18T07:07:57.684Z,98639.08
2023-05-18T07:09:07.006Z,98637.63
2023-05-18T07:10:16.732Z,98633.58
2023-05-18T07:11:26.315Z,98631.09
2023-05-18T07:12:36.928Z,98632.58
2023-05-18T07:13:44.106Z,98630.65
2023-05-18T07:14:52.297Z,98630.52
2023-05-18T07:15:59.525Z,98630.25
2023-05-18T07:17:08.692Z,98627.35
2023-05-18T07:18:15.858Z,98630.55
2023-05-18T07:19:23.393Z,98629.89
2023-05-18T07:20:31.964Z,98627.16
2023-05-18T07:21:39.605Z,98627.78
2023-05-18T07:22:47.332Z,98624.84
2023-05-18T07:23:55.794Z,98621.73
2023-05-18T07:25:03.958Z,98623.45
2023-05-18T07:26:13.759Z,98620.61
2023-05-18T07:27:22.236Z,98619.72
2023-05-18T07:28:30.745Z,98620.98
2023-05-18T07:29:38.554Z,98621.86
2023-05-18T07:30:45.758Z,98621.64
2023-05-18T07:31:54.776Z,98618.76
2023-05-18T07:33:02.715Z,98618.63
2023-05-18T07:34:10.688Z,98616.64
2023-05-18T07:35:21.706Z,98616.08
2023-05-18T07:36:30.090Z,98617.42
2023-05-18T07:37:38.019Z,98614.05
2023-05-18T07:38:46.885Z,98613.66
2023-05-18T07:39:55.320Z,98614.77
2023-05-18T07:41:04.117Z,98613.70
2023-05-18T07:42:13.891Z,98613.42
2023-05-18T07:43:21.400Z,98612.69
2023-05-18T07:44:29.666Z,98615.98
2023-05-18T07:45:37.493Z,98615.89
2023-05-18T07:46:45.062Z,98616.81
2023-05-18T07:47:52.097Z,98614.65
2023-05-18T07:49:00.895Z,98614.26
2023-05-18T07:50:08.788Z,98614.65
2023-05-18T07:51:17.244Z,98614.92
2023-05-18T07:52:26.035Z,98616.23
2023-05-18T07:53:34.845Z,98615.67
2023-05-18T07:54:41.854Z,98615.48
2023-05-18T07:55:49.865Z,98616.38
2023-05-18T07:57:00.483Z,98621.68
2023-05-18T07:58:08.796Z,98621.35
2023-05-18T07:59:16.206Z,98619.89
2023-05-18T08:00:24.576Z,98621.05
2023-05-18T08:01:31.639Z,98619.33
2023-05-18T08:02:40.418Z,98618.88
2023-05-18T08:03:47.906Z,98619.27
2023-05-18T08:04:55.056Z,98618.42
2023-05-18T08:06:04.120Z,98615.94
2023-05-18T08:07:12.133Z,98614.92
2023-05-18T08:08:20.622Z,98613.42
2023-05-18T08:09:29.109Z,98610.70
2023-05-18T08:10:35.996Z,98609.94
2023-05-18T08:11:43.472Z,98609.81
2023-05-18T08:12:51.337Z,98609.86
2023-05-18T08:13:58.784Z,98604.32
2023-05-18T08:15:07.673Z,98606.30
2023-05-18T08:16:18.745Z,98605.34
2023-05-18T08:17:28.854Z,98604.13
2023-05-18T08:18:36.444Z,98603.80
2023-05-18T08:19:42.947Z,98606.67
2023-05-18T08:20:51.033Z,98597.69
2023-05-18T08:21:58.767Z,98596.58
2023-05-18T08:23:06.181Z,98595.63
2023-05-18T08:24:14.061Z,98597.00
2023-05-18T08:25:21.463Z,98600.05
2023-05-18T08:26:29.258Z,98604.30
2023-05-18T08:27:36.921Z,98600.63
2023-05-18T08:28:44.626Z,98604.33
2023-05-18T08:29:53.034Z,98603.89
2023-05-18T08:31:00.328Z,98600.84
2023-05-18T08:32:10.146Z,98600.16
2023-05-18T08:33:16.950Z,98598.00
2023-05-18T08:34:23.967Z,98596.89
2023-05-18T08:35:31.294Z,98600.48
2023-05-18T08:36:38.546Z,98598.76
2023-05-18T08:37:45.442Z,98596.98
2023-05-18T08:38:55.023Z,98594.15
2023-05-18T08:40:01.895Z,98594.80
2023-05-18T08:41:37.865Z,98593.39
2023-05-18T08:43:15.633Z,98593.34
2023-05-18T08:44:23.855Z,98596.23
2023-05-18T08:45:54.765Z,98595.45
2023-05-18T08:47:02.626Z,98593.34
2023-05-18T08:48:10.773Z,98592.05
2023-05-18T08:49:20.478Z,98589.56
2023-05-18T08:50:28.750Z,98588.11
2023-05-18T08:51:38.073Z,98590.36
2023-05-18T08:52:53.695Z,98588.47
2023-05-18T08:54:01.497Z,98589.02
2023-05-18T08:55:12.529Z,98584.31
2023-05-18T08:56:31.049Z,98583.96
2023-05-18T08:57:39.069Z,98585.05
2023-05-18T08:58:47.289Z,98584.27
2023-05-18T08:59:55.680Z,98586.83
2023-05-18T09:01:03.867Z,98585.52
2023-05-18T09:02:13.260Z,98583.63
2023-05-18T09:03:21.898Z,98587.34
2023-05-18T09:04:30.292Z,98585.16
2023-05-18T09:05:37.766Z,98583.77
2023-05-18T09:06:45.904Z,98582.33
2023-05-18T09:07:53.736Z,98580.95
2023-05-18T09:09:06.264Z,98579.95
2023-05-18T09:10:15.834Z,98579.82
2023-05-18T09:11:24.963Z,98576.94
2023-05-18T09:12:33.123Z,98575.70
2023-05-18T09:13:40.945Z,98572.99
2023-05-18T09:14:48.513Z,98573.20
2023-05-18T09:15:56.047Z,98570.42
2023-05-18T09:17:02.978Z,98569.87
2023-05-18T09:18:11.420Z,98566.81
2023-05-18T09:19:19.701Z,98568.52
2023-05-18T09:20:28.623Z,98567.07
2023-05-18T09:21:37.109Z,98567.84
2023-05-18T09:22:45.269Z,98568.14
2023-05-18T09:23:53.798Z,98566.26
2023-05-18T09:25:01.905Z,98565.91
2023-05-18T09:26:11.899Z,98564.19
2023-05-18T09:27:18.996Z,98563.45
2023-05-18T09:28:34.700Z,98562.62
2023-05-18T09:29:59.496Z,98562.49
2023-05-18T09:31:10.066Z,98556.62
2023-05-18T09:32:18.162Z,98559.39
2023-05-18T09:33:26.284Z,98557.71
2023-05-18T09:34:44.081Z,98557.09
2023-05-18T09:35:54.899Z,98551.44
2023-05-18T09:37:03.917Z,98554.87
2023-05-18T09:38:13.351Z,98552.04
2023-05-18T09:39:22.231Z,98554.79
2023-05-18T09:40:31.489Z,98552.13
2023-05-18T09:41:43.635Z,98551.73
2023-05-18T09:42:52.498Z,98548.17
2023-05-18T09:44:00.243Z,98547.34
2023-05-18T09:45:26.924Z,98546.61
2023-05-18T09:46:42.948Z,98539.41
2023-05-18T09:47:50.664Z,98538.02
2023-05-18T09:48:57.888Z,98535.79
2023-05-18T09:50:04.669Z,98535.94
2023-05-18T09:51:18.347Z,98531.12
2023-05-18T09:52:27.137Z,98536.91
2023-05-18T09:53:34.967Z,98536.64
2023-05-18T09:54:42.269Z,98534.52
2023-05-18T09:55:50.301Z,98534.34
2023-05-18T09:57:09.604Z,98532.17
2023-05-18T09:58:18.976Z,98525.75
2023-05-18T09:59:25.759Z,98527.30
2023-05-18T10:00:33.997Z,98527.61
2023-05-18T10:02:02.320Z,98527.42
2023-05-18T10:03:14.805Z,98522.55
2023-05-18T10:04:23.044Z,98519.94
2023-05-18T10:05:36.896Z,98521.71
2023-05-18T10:06:53.546Z,98521.52
2023-05-18T10:08:01.343Z,98520.14
2023-05-18T10:09:17.712Z,98523.73
2023-05-18T10:10:28.020Z,98518.73
2023-05-18T10:11:38.279Z,98517.30
2023-05-18T10:12:46.780Z,98518.38
2023-05-18T10:13:58.347Z,98514.23
2023-05-18T10:15:05.164Z,98512.84
2023-05-18T10:16:12.068Z,98513.04
2023-05-18T10:17:19.325Z,98510.44
2023-05-18T10:18:29.105Z,98514.45
2023-05-18T10:19:40.442Z,98513.63
2023-05-18T10:20:50.783Z,98511.13
2023-05-18T10:21:58.871Z,98511.55
2023-05-18T10:23:07.684Z,98509.11
2023-05-18T10:24:15.125Z,98508.64
2023-05-18T10:25:27.344Z,98508.20
2023-05-18T10:26:34.482Z,98512.28
2023-05-18T10:27:41.764Z,98511.84
2023-05-18T10:28:48.618Z,98514.42
2023-05-18T10:29:56.949Z,98510.71
2023-05-18T10:31:03.965Z,98509.10
2023-05-18T10:32:13.663Z,98510.91
2023-05-18T10:33:29.092Z,98512.13
2023-05-18T10:34:37.372Z,98513.01
2023-05-18T10:35:45.826Z,98512.34
2023-05-18T10:36:52.664Z,98512.44
2023-05-18T10:37:59.795Z,98509.21
2023-05-18T10:39:07.606Z,98509.20
2023-05-18T10:40:16.466Z,98511.52
2023-05-18T10:41:26.208Z,98510.23
2023-05-18T10:42:34.083Z,98507.90
2023-05-18T10:43:40.912Z,98503.86
2023-05-18T10:44:49.762Z,98505.50
2023-05-18T10:46:02.871Z,98499.67
2023-05-18T10:47:12.580Z,98500.33
2023-05-18T10:48:22.100Z,98502.81
2023-05-18T10:49:30.069Z,98499.98
2023-05-18T10:50:38.147Z,98503.69
2023-05-18T10:51:45.113Z,98503.85
2023-05-18T10:52:53.442Z,98503.13
2023-05-18T10:54:05.384Z,98507.63
2023-05-18T10:55:13.363Z,98507.48
2023-05-18T10:56:21.898Z,98508.91
2023-05-18T10:57:33.068Z,98508.63
2023-05-18T10:58:40.927Z,98511.29
2023-05-18T10:59:49.134Z,98510.55
2023-05-18T11:00:58.192Z,98507.10
2023-05-18T11:02:05.838Z,98504.71
2023-05-18T11:03:16.899Z,98506.13
2023-05-18T11:04:31.667Z,98507.91
2023-05-18T11:05:39.181Z,98505.90
2023-05-18T11:06:46.992Z,98506.05
2023-05-18T11:08:01.270Z,98500.79
2023-05-18T11:09:09.064Z,98505.11
2023-05-18T11:10:17.971Z,98502.38
2023-05-18T11:11:31.794Z,98505.75
2023-05-18T11:12:42.402Z,98504.63
2023-05-18T11:13:53.805Z,98503.84
2023-05-18T11:15:03.620Z,98505.05
2023-05-18T11:16:11.587Z,98506.38
2023-05-18T11:17:31.220Z,98505.43
2023-05-18T11:18:47.366Z,98509.19
2023-05-18T11:20:14.412Z,98511.97
2023-05-18T11:21:51.700Z,98514.05
2023-05-18T11:23:06.031Z,98516.05
2023-05-18T11:24:32.924Z,98516.33
2023-05-18T11:25:40.434Z,98514.71
2023-05-18T11:26:48.744Z,98515.65
2023-05-18T11:27:59.409Z,98511.33
2023-05-18T11:29:20.807Z,98513.21
2023-05-18T11:30:51.248Z,98514.30
2023-05-18T11:31:58.429Z,98498.86
2023-05-18T11:33:24.621Z,98490.10
2023-05-18T11:34:47.407Z,98493.36
2023-05-18T11:36:12.554Z,98498.46
2023-05-18T11:37:40.588Z,98498.11
2023-05-18T11:38:56.135Z,98499.16
2023-05-18T11:40:07.754Z,98499.83
2023-05-18T11:41:37.158Z,98497.33
2023-05-18T11:42:44.014Z,98501.69
2023-05-18T11:44:08.005Z,98503.94
2023-05-18T11:45:17.584Z,98504.60
2023-05-18T11:46:25.390Z,98508.74
2023-05-18T11:47:33.589Z,98506.17
2023-05-18T11:48:41.124Z,98507.17
2023-05-18T11:49:49.249Z,98506.44
2023-05-18T11:50:56.885Z,98508.80
2023-05-18T11:52:11.174Z,98509.95
2023-05-18T11:53:21.577Z,98505.34
2023-05-18T11:54:29.086Z,98504.83
2023-05-18T11:55:43.109Z,98502.88
2023-05-18T11:56:50.740Z,98502.70
2023-05-18T11:57:58.448Z,98503.13
2023-05-18T11:59:16.053Z,98497.36
2023-05-18T12:00:23.135Z,98499.05
2023-05-18T12:01:31.652Z,98496.94
2023-05-18T12:02:38.753Z,98499.44
2023-05-18T12:03:48.467Z,98497.89
2023-05-18T12:05:02.609Z,98495.33
2023-05-18T12:06:09.429Z,98496.80
2023-05-18T12:07:16.672Z,98495.41
2023-05-18T12:08:30.791Z,98493.23
2023-05-18T12:09:37.870Z,98491.27
2023-05-18T12:10:44.493Z,98494.09
2023-05-18T12:11:52.489Z,98490.48
2023-05-18T12:12:59.036Z,98488.46
2023-05-18T12:14:05.818Z,98488.17
2023-05-18T12:15:15.006Z,98489.39
2023-05-18T12:16:24.845Z,98489.10
2023-05-18T12:17:49.449Z,98492.09
2023-05-18T12:18:57.039Z,98493.13
2023-05-18T12:20:05.442Z,98492.02
2023-05-18T12:21:12.824Z,98492.86
2023-05-18T12:22:20.049Z,98494.08
2023-05-18T12:23:39.636Z,98494.99
2023-05-18T12:24:47.222Z,98492.05
2023-05-18T12:25:55.720Z,98494.59
2023-05-18T12:27:07.721Z,98491.88
2023-05-18T12:28:18.486Z,98494.85
2023-05-18T12:29:27.356Z,98492.17
2023-05-18T12:30:39.107Z,98493.39
2023-05-18T12:31:46.650Z,98492.34
2023-05-18T12:32:58.252Z,98489.34
2023-05-18T12:34:06.285Z,98489.38
2023-05-18T12:35:14.232Z,98489.41
2023-05-18T12:36:21.807Z,98495.55
2023-05-18T12:37:37.952Z,98492.23
2023-05-18T12:38:55.406Z,98493.77
2023-05-18T12:40:02.881Z,98496.09
2023-05-18T12:41:10.667Z,98498.74
2023-05-18T12:42:18.253Z,98497.02
2023-05-18T12:43:28.858Z,98494.84
2023-05-18T12:44:36.236Z,98493.73
2023-05-18T12:45:43.680Z,98492.52
2023-05-18T12:46:51.874Z,98495.09
2023-05-18T12:48:06.804Z,98497.98
2023-05-18T12:49:15.708Z,98495.13
2023-05-18T12:50:26.518Z,98495.08
2023-05-18T12:51:37.288Z,98493.56
2023-05-18T12:52:44.437Z,98493.51
2023-05-18T12:53:51.983Z,98495.27
2023-05-18T12:55:01.124Z,98496.31
2023-05-18T12:56:11.023Z,98498.64
2023-05-18T12:57:22.395Z,98500.05
2023-05-18T12:58:29.240Z,98498.49
2023-05-18T12:59:36.977Z,98497.93
2023-05-18T13:00:46.665Z,98500.27
2023-05-18T13:01:54.692Z,98496.27
2023-05-18T13:03:16.458Z,98496.70
2023-05-18T13:04:24.383Z,98496.98
2023-05-18T13:05:31.203Z,98499.35
2023-05-18T13:06:40.158Z,98499.39
2023-05-18T13:07:47.704Z,98500.61
2023-05-18T13:08:56.939Z,98501.42
2023-05-18T13:10:08.847Z,98500.36
2023-05-18T13:11:18.084Z,98504.80
2023-05-18T13:12:45.638Z,98504.34
2023-05-18T13:14:05.756Z,98503.11
2023-05-18T13:15:20.830Z,98504.21
2023-05-18T13:16:30.510Z,98507.27
2023-05-18T13:17:39.492Z,98506.66
2023-05-18T13:18:48.925Z,98505.98
2023-05-18T13:20:00.813Z,98506.75
2023-05-18T13:21:09.689Z,98511.40
2023-05-18T13:22:18.784Z,98512.94
2023-05-18T13:23:32.980Z,98515.09
2023-05-18T13:24:40.531Z,98512.98
2023-05-18T13:25:48.224Z,98516.73
2023-05-18T13:26:54.934Z,98521.29
2023-05-18T13:28:02.533Z,98521.00
2023-05-18T13:29:13.541Z,98523.66
2023-05-18T13:30:21.698Z,98527.58
2023-05-18T13:31:30.928Z,98526.80
2023-05-18T13:32:38.786Z,98526.45
2023-05-18T13:33:45.541Z,98529.33
2023-05-18T13:34:54.631Z,98532.56
2023-05-18T13:36:02.425Z,98531.95
2023-05-18T13:37:12.178Z,98533.27
2023-05-18T13:38:20.992Z,98533.98
2023-05-18T13:39:28.347Z,98538.47
2023-05-18T13:40:36.402Z,98538.64
2023-05-18T13:41:44.629Z,98537.08
2023-05-18T13:42:52.992Z,98536.62
2023-05-18T13:44:00.518Z,98537.12